sensor_id;sensor_type;location;lat;lon;timestamp;P1;durP1;ratioP1;P2;durP2;ratioP2
17818;SDS011;9034;50.284;19.310;2022-08-19T00:00:10;11.40;;;10.23;;
17818;SDS011;9034;50.284;19.310;2022-08-19T00:01:16;10.17;;;9.17;;
17818;SDS011;9034;50.284;19.310;2022-08-19T00:02:31;15.63;;;10.52;;
17818;SDS011;9034;50.284;19.310;2022-08-19T00:03:35;13.23;;;9.85;;
17818;SDS011;9034;50.284;19.310;2022-08-19T00:04:38;11.77;;;10.57;;
17818;SDS011;9034;50.284;19.310;2022-08-19T00:05:54;11.82;;;9.02;;
17818;SDS011;9034;50.284;19.310;2022-08-19T00:06:57;10.40;;;9.30;;
17818;SDS011;9034;50.284;19.310;2022-08-19T00:08:02;11.18;;;10.00;;
17818;SDS011;9034;50.284;19.310;2022-08-19T00:09:07;12.60;;;10.20;;
17818;SDS011;9034;50.284;19.310;2022-08-19T00:10:14;11.43;;;9.85;;
17818;SDS011;9034;50.284;19.310;2022-08-19T00:11:17;12.25;;;10.07;;
17818;SDS011;9034;50.284;19.310;2022-08-19T00:12:28;15.20;;;10.43;;
17818;SDS011;9034;50.284;19.310;2022-08-19T00:13:33;12.43;;;10.32;;
17818;SDS011;9034;50.284;19.310;2022-08-19T00:14:36;12.38;;;10.18;;
17818;SDS011;9034;50.284;19.310;2022-08-19T00:15:41;14.00;;;10.60;;
17818;SDS011;9034;50.284;19.310;2022-08-19T00:16:47;12.38;;;11.07;;
17818;SDS011;9034;50.284;19.310;2022-08-19T00:17:53;12.45;;;10.70;;
17818;SDS011;9034;50.284;19.310;2022-08-19T00:18:57;13.30;;;10.82;;
17818;SDS011;9034;50.284;19.310;2022-08-19T00:20:02;13.23;;;10.05;;
17818;SDS011;9034;50.284;19.310;2022-08-19T00:21:06;12.70;;;10.25;;
17818;SDS011;9034;50.284;19.310;2022-08-19T00:22:11;11.90;;;10.57;;
17818;SDS011;9034;50.284;19.310;2022-08-19T00:23:14;12.18;;;10.98;;
17818;SDS011;9034;50.284;19.310;2022-08-19T00:24:19;13.88;;;11.52;;
17818;SDS011;9034;50.284;19.310;2022-08-19T00:25:22;17.60;;;11.68;;
17818;SDS011;9034;50.284;19.310;2022-08-19T00:26:31;12.13;;;10.38;;
17818;SDS011;9034;50.284;19.310;2022-08-19T00:27:36;13.02;;;10.38;;
17818;SDS011;9034;50.284;19.310;2022-08-19T00:28:41;12.00;;;10.80;;
17818;SDS011;9034;50.284;19.310;2022-08-19T00:29:45;12.32;;;11.02;;
17818;SDS011;9034;50.284;19.310;2022-08-19T00:30:53;13.23;;;11.25;;
17818;SDS011;9034;50.284;19.310;2022-08-19T00:31:58;12.70;;;10.98;;
17818;SDS011;9034;50.284;19.310;2022-08-19T00:33:02;13.85;;;11.57;;
17818;SDS011;9034;50.284;19.310;2022-08-19T00:34:06;11.68;;;10.48;;
17818;SDS011;9034;50.284;19.310;2022-08-19T00:35:09;13.18;;;11.82;;
17818;SDS011;9034;50.284;19.310;2022-08-19T00:36:14;13.10;;;11.80;;
17818;SDS011;9034;50.284;19.310;2022-08-19T00:37:17;13.32;;;11.82;;
17818;SDS011;9034;50.284;19.310;2022-08-19T00:38:21;13.52;;;12.13;;
17818;SDS011;9034;50.284;19.310;2022-08-19T00:39:39;13.88;;;12.35;;
17818;SDS011;9034;50.284;19.310;2022-08-19T00:40:43;13.32;;;11.93;;
17818;SDS011;9034;50.284;19.310;2022-08-19T00:41:49;15.60;;;12.48;;
17818;SDS011;9034;50.284;19.310;2022-08-19T00:42:55;14.13;;;12.35;;
17818;SDS011;9034;50.284;19.310;2022-08-19T00:44:03;14.05;;;11.77;;
17818;SDS011;9034;50.284;19.310;2022-08-19T00:45:20;12.90;;;11.57;;
17818;SDS011;9034;50.284;19.310;2022-08-19T00:46:24;12.75;;;11.18;;
17818;SDS011;9034;50.284;19.310;2022-08-19T00:47:29;14.00;;;11.32;;
17818;SDS011;9034;50.284;19.310;2022-08-19T00:48:33;12.32;;;11.10;;
17818;SDS011;9034;50.284;19.310;2022-08-19T00:49:39;15.15;;;12.15;;
17818;SDS011;9034;50.284;19.310;2022-08-19T00:50:48;15.05;;;11.55;;
17818;SDS011;9034;50.284;19.310;2022-08-19T00:51:54;13.23;;;11.55;;
17818;SDS011;9034;50.284;19.310;2022-08-19T00:53:02;15.38;;;12.82;;
17818;SDS011;9034;50.284;19.310;2022-08-19T00:54:05;13.95;;;12.55;;
17818;SDS011;9034;50.284;19.310;2022-08-19T00:55:13;12.30;;;11.07;;
17818;SDS011;9034;50.284;19.310;2022-08-19T00:56:18;16.35;;;11.60;;
17818;SDS011;9034;50.284;19.310;2022-08-19T00:57:23;12.27;;;10.90;;
17818;SDS011;9034;50.284;19.310;2022-08-19T00:58:48;14.60;;;11.77;;
17818;SDS011;9034;50.284;19.310;2022-08-19T00:59:52;13.05;;;11.13;;
17818;SDS011;9034;50.284;19.310;2022-08-19T01:01:04;12.95;;;11.25;;
17818;SDS011;9034;50.284;19.310;2022-08-19T01:02:13;16.45;;;11.50;;
17818;SDS011;9034;50.284;19.310;2022-08-19T01:03:18;12.57;;;10.70;;
17818;SDS011;9034;50.284;19.310;2022-08-19T01:04:23;11.93;;;10.73;;
17818;SDS011;9034;50.284;19.310;2022-08-19T01:05:38;14.13;;;11.95;;
17818;SDS011;9034;50.284;19.310;2022-08-19T01:06:43;13.18;;;11.82;;
17818;SDS011;9034;50.284;19.310;2022-08-19T01:07:46;13.55;;;12.20;;
17818;SDS011;9034;50.284;19.310;2022-08-19T01:08:53;13.35;;;11.98;;
17818;SDS011;9034;50.284;19.310;2022-08-19T01:09:56;13.90;;;11.93;;
17818;SDS011;9034;50.284;19.310;2022-08-19T01:11:01;14.77;;;12.10;;
17818;SDS011;9034;50.284;19.310;2022-08-19T01:12:11;13.50;;;12.15;;
17818;SDS011;9034;50.284;19.310;2022-08-19T01:13:16;14.60;;;13.10;;
17818;SDS011;9034;50.284;19.310;2022-08-19T01:14:21;15.60;;;13.63;;
17818;SDS011;9034;50.284;19.310;2022-08-19T01:15:28;14.32;;;12.35;;
17818;SDS011;9034;50.284;19.310;2022-08-19T01:16:34;16.30;;;12.45;;
17818;SDS011;9034;50.284;19.310;2022-08-19T01:17:39;16.15;;;13.20;;
17818;SDS011;9034;50.284;19.310;2022-08-19T01:18:43;13.85;;;12.55;;
17818;SDS011;9034;50.284;19.310;2022-08-19T01:19:49;14.77;;;12.30;;
17818;SDS011;9034;50.284;19.310;2022-08-19T01:20:52;17.38;;;14.40;;
17818;SDS011;9034;50.284;19.310;2022-08-19T01:21:58;15.18;;;13.63;;
17818;SDS011;9034;50.284;19.310;2022-08-19T01:23:19;17.75;;;14.55;;
17818;SDS011;9034;50.284;19.310;2022-08-19T01:24:23;13.27;;;11.98;;
17818;SDS011;9034;50.284;19.310;2022-08-19T01:25:28;14.35;;;12.50;;
17818;SDS011;9034;50.284;19.310;2022-08-19T01:26:38;15.45;;;12.35;;
17818;SDS011;9034;50.284;19.310;2022-08-19T01:27:46;13.50;;;12.13;;
17818;SDS011;9034;50.284;19.310;2022-08-19T01:28:55;14.90;;;13.40;;
17818;SDS011;9034;50.284;19.310;2022-08-19T01:30:02;17.70;;;13.45;;
17818;SDS011;9034;50.284;19.310;2022-08-19T01:31:08;15.55;;;13.90;;
17818;SDS011;9034;50.284;19.310;2022-08-19T01:32:28;16.48;;;14.07;;
17818;SDS011;9034;50.284;19.310;2022-08-19T01:33:36;15.60;;;13.00;;
17818;SDS011;9034;50.284;19.310;2022-08-19T01:34:39;15.63;;;13.55;;
17818;SDS011;9034;50.284;19.310;2022-08-19T01:35:44;15.98;;;14.10;;
17818;SDS011;9034;50.284;19.310;2022-08-19T01:36:47;13.77;;;12.38;;
17818;SDS011;9034;50.284;19.310;2022-08-19T01:37:53;15.63;;;13.10;;
17818;SDS011;9034;50.284;19.310;2022-08-19T01:38:59;16.48;;;12.75;;
17818;SDS011;9034;50.284;19.310;2022-08-19T01:40:05;15.18;;;13.57;;
17818;SDS011;9034;50.284;19.310;2022-08-19T01:41:10;13.35;;;12.07;;
17818;SDS011;9034;50.284;19.310;2022-08-19T01:42:15;16.55;;;12.52;;
17818;SDS011;9034;50.284;19.310;2022-08-19T01:43:20;14.40;;;12.95;;
17818;SDS011;9034;50.284;19.310;2022-08-19T01:44:25;15.68;;;13.82;;
17818;SDS011;9034;50.284;19.310;2022-08-19T01:45:28;15.27;;;13.23;;
17818;SDS011;9034;50.284;19.310;2022-08-19T01:46:34;15.85;;;13.00;;
17818;SDS011;9034;50.284;19.310;2022-08-19T01:47:37;17.95;;;13.30;;
17818;SDS011;9034;50.284;19.310;2022-08-19T01:48:42;15.30;;;13.38;;
17818;SDS011;9034;50.284;19.310;2022-08-19T01:49:46;16.23;;;14.63;;
17818;SDS011;9034;50.284;19.310;2022-08-19T01:50:50;15.77;;;14.15;;
17818;SDS011;9034;50.284;19.310;2022-08-19T01:51:54;15.82;;;14.13;;
17818;SDS011;9034;50.284;19.310;2022-08-19T01:52:58;18.10;;;14.85;;
17818;SDS011;9034;50.284;19.310;2022-08-19T01:54:10;16.77;;;14.38;;
17818;SDS011;9034;50.284;19.310;2022-08-19T01:55:29;18.08;;;14.35;;
17818;SDS011;9034;50.284;19.310;2022-08-19T01:56:33;16.13;;;14.48;;
17818;SDS011;9034;50.284;19.310;2022-08-19T01:57:37;17.58;;;13.68;;
17818;SDS011;9034;50.284;19.310;2022-08-19T01:58:44;17.20;;;14.55;;
17818;SDS011;9034;50.284;19.310;2022-08-19T01:59:51;14.65;;;13.20;;
17818;SDS011;9034;50.284;19.310;2022-08-19T02:00:56;15.05;;;13.40;;
17818;SDS011;9034;50.284;19.310;2022-08-19T02:01:59;18.98;;;13.80;;
17818;SDS011;9034;50.284;19.310;2022-08-19T02:03:04;16.55;;;13.63;;
17818;SDS011;9034;50.284;19.310;2022-08-19T02:04:08;14.63;;;12.98;;
17818;SDS011;9034;50.284;19.310;2022-08-19T02:05:13;14.95;;;13.23;;
17818;SDS011;9034;50.284;19.310;2022-08-19T02:06:16;15.90;;;13.45;;
17818;SDS011;9034;50.284;19.310;2022-08-19T02:07:28;16.75;;;14.13;;
17818;SDS011;9034;50.284;19.310;2022-08-19T02:08:32;15.25;;;13.65;;
17818;SDS011;9034;50.284;19.310;2022-08-19T02:09:40;15.15;;;12.88;;
17818;SDS011;9034;50.284;19.310;2022-08-19T02:10:43;15.35;;;12.90;;
17818;SDS011;9034;50.284;19.310;2022-08-19T02:11:48;15.25;;;13.38;;
17818;SDS011;9034;50.284;19.310;2022-08-19T02:12:51;15.70;;;12.20;;
17818;SDS011;9034;50.284;19.310;2022-08-19T02:13:56;14.43;;;12.88;;
17818;SDS011;9034;50.284;19.310;2022-08-19T02:14:59;13.85;;;12.45;;
17818;SDS011;9034;50.284;19.310;2022-08-19T02:16:04;13.30;;;12.00;;
17818;SDS011;9034;50.284;19.310;2022-08-19T02:17:07;15.40;;;13.80;;
17818;SDS011;9034;50.284;19.310;2022-08-19T02:18:12;16.85;;;13.52;;
17818;SDS011;9034;50.284;19.310;2022-08-19T02:19:15;15.93;;;13.40;;
17818;SDS011;9034;50.284;19.310;2022-08-19T02:20:20;17.70;;;14.43;;
17818;SDS011;9034;50.284;19.310;2022-08-19T02:21:23;17.85;;;14.23;;
17818;SDS011;9034;50.284;19.310;2022-08-19T02:22:28;16.30;;;13.30;;
17818;SDS011;9034;50.284;19.310;2022-08-19T02:23:31;20.05;;;14.02;;
17818;SDS011;9034;50.284;19.310;2022-08-19T02:24:35;13.95;;;12.55;;
17818;SDS011;9034;50.284;19.310;2022-08-19T02:25:40;14.05;;;12.65;;
17818;SDS011;9034;50.284;19.310;2022-08-19T02:26:45;14.55;;;13.00;;
17818;SDS011;9034;50.284;19.310;2022-08-19T02:27:48;16.95;;;14.43;;
17818;SDS011;9034;50.284;19.310;2022-08-19T02:28:53;17.30;;;14.88;;
17818;SDS011;9034;50.284;19.310;2022-08-19T02:29:57;15.18;;;13.57;;
17818;SDS011;9034;50.284;19.310;2022-08-19T02:31:02;15.77;;;14.10;;
17818;SDS011;9034;50.284;19.310;2022-08-19T02:32:05;17.52;;;14.57;;
17818;SDS011;9034;50.284;19.310;2022-08-19T02:33:10;18.40;;;15.18;;
17818;SDS011;9034;50.284;19.310;2022-08-19T02:34:13;14.45;;;12.95;;
17818;SDS011;9034;50.284;19.310;2022-08-19T02:35:18;16.60;;;13.82;;
17818;SDS011;9034;50.284;19.310;2022-08-19T02:36:21;16.20;;;14.50;;
17818;SDS011;9034;50.284;19.310;2022-08-19T02:37:26;16.38;;;14.65;;
17818;SDS011;9034;50.284;19.310;2022-08-19T02:38:48;18.67;;;14.95;;
17818;SDS011;9034;50.284;19.310;2022-08-19T02:39:56;15.88;;;14.18;;
17818;SDS011;9034;50.284;19.310;2022-08-19T02:41:04;18.42;;;15.20;;
17818;SDS011;9034;50.284;19.310;2022-08-19T02:42:09;15.52;;;13.95;;
17818;SDS011;9034;50.284;19.310;2022-08-19T02:43:14;18.58;;;14.25;;
17818;SDS011;9034;50.284;19.310;2022-08-19T02:44:18;15.25;;;13.52;;
17818;SDS011;9034;50.284;19.310;2022-08-19T02:45:32;15.55;;;13.48;;
17818;SDS011;9034;50.284;19.310;2022-08-19T02:46:36;16.60;;;14.02;;
17818;SDS011;9034;50.284;19.310;2022-08-19T02:47:40;15.88;;;14.25;;
17818;SDS011;9034;50.284;19.310;2022-08-19T02:48:44;15.85;;;14.15;;
17818;SDS011;9034;50.284;19.310;2022-08-19T02:49:48;14.55;;;13.05;;
17818;SDS011;9034;50.284;19.310;2022-08-19T02:50:52;16.10;;;14.30;;
17818;SDS011;9034;50.284;19.310;2022-08-19T02:51:58;16.90;;;15.13;;
17818;SDS011;9034;50.284;19.310;2022-08-19T02:53:01;15.95;;;14.25;;
17818;SDS011;9034;50.284;19.310;2022-08-19T02:54:06;15.38;;;13.65;;
17818;SDS011;9034;50.284;19.310;2022-08-19T02:55:09;21.55;;;15.98;;
17818;SDS011;9034;50.284;19.310;2022-08-19T02:56:15;16.42;;;14.73;;
17818;SDS011;9034;50.284;19.310;2022-08-19T02:57:18;17.52;;;14.43;;
17818;SDS011;9034;50.284;19.310;2022-08-19T02:58:23;15.18;;;13.57;;
17818;SDS011;9034;50.284;19.310;2022-08-19T02:59:29;17.95;;;16.00;;
17818;SDS011;9034;50.284;19.310;2022-08-19T03:00:33;17.40;;;15.55;;
17818;SDS011;9034;50.284;19.310;2022-08-19T03:01:43;16.38;;;14.23;;
17818;SDS011;9034;50.284;19.310;2022-08-19T03:02:47;16.13;;;14.50;;
17818;SDS011;9034;50.284;19.310;2022-08-19T03:03:50;15.18;;;13.63;;
17818;SDS011;9034;50.284;19.310;2022-08-19T03:04:55;15.35;;;13.27;;
17818;SDS011;9034;50.284;19.310;2022-08-19T03:06:08;18.60;;;15.90;;
17818;SDS011;9034;50.284;19.310;2022-08-19T03:07:15;18.17;;;15.15;;
17818;SDS011;9034;50.284;19.310;2022-08-19T03:08:19;15.93;;;14.25;;
17818;SDS011;9034;50.284;19.310;2022-08-19T03:09:23;16.10;;;14.40;;
17818;SDS011;9034;50.284;19.310;2022-08-19T03:10:26;15.85;;;14.15;;
17818;SDS011;9034;50.284;19.310;2022-08-19T03:11:32;16.00;;;13.90;;
17818;SDS011;9034;50.284;19.310;2022-08-19T03:12:36;15.43;;;12.55;;
17818;SDS011;9034;50.284;19.310;2022-08-19T03:13:41;19.38;;;15.13;;
17818;SDS011;9034;50.284;19.310;2022-08-19T03:14:45;17.85;;;15.95;;
17818;SDS011;9034;50.284;19.310;2022-08-19T03:15:49;13.63;;;12.20;;
17818;SDS011;9034;50.284;19.310;2022-08-19T03:16:52;16.23;;;12.00;;
17818;SDS011;9034;50.284;19.310;2022-08-19T03:17:56;12.93;;;11.63;;
17818;SDS011;9034;50.284;19.310;2022-08-19T03:19:03;14.32;;;12.93;;
17818;SDS011;9034;50.284;19.310;2022-08-19T03:20:08;11.95;;;10.70;;
17818;SDS011;9034;50.284;19.310;2022-08-19T03:21:15;13.50;;;12.10;;
17818;SDS011;9034;50.284;19.310;2022-08-19T03:22:20;15.95;;;13.15;;
17818;SDS011;9034;50.284;19.310;2022-08-19T03:23:23;15.75;;;13.88;;
17818;SDS011;9034;50.284;19.310;2022-08-19T03:24:28;14.13;;;12.07;;
17818;SDS011;9034;50.284;19.310;2022-08-19T03:25:35;11.77;;;10.52;;
17818;SDS011;9034;50.284;19.310;2022-08-19T03:26:43;12.55;;;11.25;;
17818;SDS011;9034;50.284;19.310;2022-08-19T03:27:49;13.88;;;11.25;;
17818;SDS011;9034;50.284;19.310;2022-08-19T03:28:53;16.98;;;12.20;;
17818;SDS011;9034;50.284;19.310;2022-08-19T03:30:00;13.35;;;11.13;;
17818;SDS011;9034;50.284;19.310;2022-08-19T03:31:05;15.65;;;12.68;;
17818;SDS011;9034;50.284;19.310;2022-08-19T03:32:44;16.65;;;12.27;;
17818;SDS011;9034;50.284;19.310;2022-08-19T03:33:54;14.60;;;11.90;;
17818;SDS011;9034;50.284;19.310;2022-08-19T03:34:58;14.45;;;11.82;;
17818;SDS011;9034;50.284;19.310;2022-08-19T03:36:03;12.95;;;11.52;;
17818;SDS011;9034;50.284;19.310;2022-08-19T03:37:10;14.85;;;12.60;;
17818;SDS011;9034;50.284;19.310;2022-08-19T03:38:14;15.02;;;13.52;;
17818;SDS011;9034;50.284;19.310;2022-08-19T03:39:19;12.07;;;10.77;;
17818;SDS011;9034;50.284;19.310;2022-08-19T03:40:23;13.55;;;11.02;;
17818;SDS011;9034;50.284;19.310;2022-08-19T03:41:29;17.55;;;14.50;;
17818;SDS011;9034;50.284;19.310;2022-08-19T03:42:48;14.93;;;13.30;;
17818;SDS011;9034;50.284;19.310;2022-08-19T03:43:53;15.48;;;12.77;;
17818;SDS011;9034;50.284;19.310;2022-08-19T03:44:57;14.23;;;12.73;;
17818;SDS011;9034;50.284;19.310;2022-08-19T03:46:03;16.95;;;13.40;;
17818;SDS011;9034;50.284;19.310;2022-08-19T03:47:07;13.95;;;12.65;;
17818;SDS011;9034;50.284;19.310;2022-08-19T03:48:11;13.73;;;12.43;;
17818;SDS011;9034;50.284;19.310;2022-08-19T03:49:15;14.68;;;12.93;;
17818;SDS011;9034;50.284;19.310;2022-08-19T03:50:20;15.90;;;12.82;;
17818;SDS011;9034;50.284;19.310;2022-08-19T03:51:25;15.98;;;14.23;;
17818;SDS011;9034;50.284;19.310;2022-08-19T03:52:32;17.63;;;15.80;;
17818;SDS011;9034;50.284;19.310;2022-08-19T03:53:35;18.20;;;15.52;;
17818;SDS011;9034;50.284;19.310;2022-08-19T03:54:40;16.38;;;13.32;;
17818;SDS011;9034;50.284;19.310;2022-08-19T03:55:43;19.17;;;14.93;;
17818;SDS011;9034;50.284;19.310;2022-08-19T03:57:00;20.75;;;15.55;;
17818;SDS011;9034;50.284;19.310;2022-08-19T03:58:06;21.77;;;15.20;;
17818;SDS011;9034;50.284;19.310;2022-08-19T03:59:10;18.80;;;15.65;;
17818;SDS011;9034;50.284;19.310;2022-08-19T04:00:16;17.85;;;14.85;;
17818;SDS011;9034;50.284;19.310;2022-08-19T04:01:21;16.75;;;13.73;;
17818;SDS011;9034;50.284;19.310;2022-08-19T04:02:36;21.13;;;15.35;;
17818;SDS011;9034;50.284;19.310;2022-08-19T04:03:40;14.75;;;13.13;;
17818;SDS011;9034;50.284;19.310;2022-08-19T04:04:45;19.15;;;14.68;;
17818;SDS011;9034;50.284;19.310;2022-08-19T04:05:48;16.90;;;15.10;;
17818;SDS011;9034;50.284;19.310;2022-08-19T04:06:53;16.65;;;14.90;;
17818;SDS011;9034;50.284;19.310;2022-08-19T04:07:56;17.02;;;13.30;;
17818;SDS011;9034;50.284;19.310;2022-08-19T04:09:03;15.48;;;13.25;;
17818;SDS011;9034;50.284;19.310;2022-08-19T04:10:07;15.80;;;14.10;;
17818;SDS011;9034;50.284;19.310;2022-08-19T04:11:16;14.30;;;12.73;;
17818;SDS011;9034;50.284;19.310;2022-08-19T04:12:43;14.73;;;13.32;;
17818;SDS011;9034;50.284;19.310;2022-08-19T04:13:50;15.35;;;13.38;;
17818;SDS011;9034;50.284;19.310;2022-08-19T04:14:54;15.95;;;14.25;;
17818;SDS011;9034;50.284;19.310;2022-08-19T04:15:58;15.35;;;13.35;;
17818;SDS011;9034;50.284;19.310;2022-08-19T04:17:02;14.55;;;12.95;;
17818;SDS011;9034;50.284;19.310;2022-08-19T04:18:08;14.93;;;13.43;;
17818;SDS011;9034;50.284;19.310;2022-08-19T04:19:12;19.75;;;13.98;;
17818;SDS011;9034;50.284;19.310;2022-08-19T04:20:17;16.95;;;13.98;;
17818;SDS011;9034;50.284;19.310;2022-08-19T04:21:21;17.55;;;13.10;;
17818;SDS011;9034;50.284;19.310;2022-08-19T04:22:27;17.45;;;14.45;;
17818;SDS011;9034;50.284;19.310;2022-08-19T04:23:32;19.98;;;14.77;;
17818;SDS011;9034;50.284;19.310;2022-08-19T04:24:46;19.58;;;15.77;;
17818;SDS011;9034;50.284;19.310;2022-08-19T04:25:50;20.13;;;16.75;;
17818;SDS011;9034;50.284;19.310;2022-08-19T04:26:53;23.17;;;16.13;;
17818;SDS011;9034;50.284;19.310;2022-08-19T04:27:58;19.67;;;16.70;;
17818;SDS011;9034;50.284;19.310;2022-08-19T04:29:04;19.73;;;15.55;;
17818;SDS011;9034;50.284;19.310;2022-08-19T04:30:14;17.77;;;15.65;;
17818;SDS011;9034;50.284;19.310;2022-08-19T04:31:21;17.08;;;15.32;;
17818;SDS011;9034;50.284;19.310;2022-08-19T04:32:25;18.65;;;14.88;;
17818;SDS011;9034;50.284;19.310;2022-08-19T04:33:29;17.95;;;15.13;;
17818;SDS011;9034;50.284;19.310;2022-08-19T04:34:33;22.75;;;16.50;;
17818;SDS011;9034;50.284;19.310;2022-08-19T04:35:57;16.67;;;14.70;;
17818;SDS011;9034;50.284;19.310;2022-08-19T04:37:01;19.73;;;15.05;;
17818;SDS011;9034;50.284;19.310;2022-08-19T04:38:05;19.40;;;14.85;;
17818;SDS011;9034;50.284;19.310;2022-08-19T04:39:09;19.70;;;16.20;;
17818;SDS011;9034;50.284;19.310;2022-08-19T04:40:15;23.48;;;16.40;;
17818;SDS011;9034;50.284;19.310;2022-08-19T04:41:45;17.77;;;15.63;;
17818;SDS011;9034;50.284;19.310;2022-08-19T04:43:07;16.85;;;14.45;;
17818;SDS011;9034;50.284;19.310;2022-08-19T04:44:12;15.75;;;14.20;;
17818;SDS011;9034;50.284;19.310;2022-08-19T04:45:16;16.25;;;13.68;;
17818;SDS011;9034;50.284;19.310;2022-08-19T04:46:24;17.48;;;14.43;;
17818;SDS011;9034;50.284;19.310;2022-08-19T04:47:47;18.25;;;14.23;;
17818;SDS011;9034;50.284;19.310;2022-08-19T04:49:00;17.05;;;14.60;;
17818;SDS011;9034;50.284;19.310;2022-08-19T04:50:14;15.65;;;14.15;;
17818;SDS011;9034;50.284;19.310;2022-08-19T04:51:20;16.23;;;14.52;;
17818;SDS011;9034;50.284;19.310;2022-08-19T04:52:23;15.13;;;13.55;;
17818;SDS011;9034;50.284;19.310;2022-08-19T04:53:28;17.77;;;14.73;;
17818;SDS011;9034;50.284;19.310;2022-08-19T04:54:39;16.75;;;15.00;;
17818;SDS011;9034;50.284;19.310;2022-08-19T04:55:42;17.48;;;14.00;;
17818;SDS011;9034;50.284;19.310;2022-08-19T04:56:46;16.95;;;14.55;;
17818;SDS011;9034;50.284;19.310;2022-08-19T04:57:52;16.40;;;14.30;;
17818;SDS011;9034;50.284;19.310;2022-08-19T04:58:57;17.45;;;14.05;;
17818;SDS011;9034;50.284;19.310;2022-08-19T05:00:02;17.00;;;13.85;;
17818;SDS011;9034;50.284;19.310;2022-08-19T05:01:08;20.27;;;13.88;;
17818;SDS011;9034;50.284;19.310;2022-08-19T05:02:13;17.63;;;12.57;;
17818;SDS011;9034;50.284;19.310;2022-08-19T05:03:16;15.63;;;12.45;;
17818;SDS011;9034;50.284;19.310;2022-08-19T05:04:20;14.45;;;12.30;;
17818;SDS011;9034;50.284;19.310;2022-08-19T05:05:24;12.95;;;11.65;;
17818;SDS011;9034;50.284;19.310;2022-08-19T05:06:28;13.35;;;11.93;;
17818;SDS011;9034;50.284;19.310;2022-08-19T05:07:36;15.83;;;11.73;;
17818;SDS011;9034;50.284;19.310;2022-08-19T05:08:40;14.27;;;12.43;;
17818;SDS011;9034;50.284;19.310;2022-08-19T05:09:45;15.10;;;11.90;;
17818;SDS011;9034;50.284;19.310;2022-08-19T05:10:59;14.13;;;11.90;;
17818;SDS011;9034;50.284;19.310;2022-08-19T05:12:03;13.57;;;10.77;;
17818;SDS011;9034;50.284;19.310;2022-08-19T05:13:08;14.33;;;11.70;;
17818;SDS011;9034;50.284;19.310;2022-08-19T05:14:13;12.27;;;11.00;;
17818;SDS011;9034;50.284;19.310;2022-08-19T05:15:19;13.97;;;11.47;;
17818;SDS011;9034;50.284;19.310;2022-08-19T05:16:22;14.77;;;10.43;;
17818;SDS011;9034;50.284;19.310;2022-08-19T05:17:27;13.57;;;11.00;;
17818;SDS011;9034;50.284;19.310;2022-08-19T05:18:37;13.63;;;11.60;;
17818;SDS011;9034;50.284;19.310;2022-08-19T05:19:58;14.10;;;10.93;;
17818;SDS011;9034;50.284;19.310;2022-08-19T05:21:20;13.23;;;10.47;;
17818;SDS011;9034;50.284;19.310;2022-08-19T05:22:42;13.23;;;9.97;;
17818;SDS011;9034;50.284;19.310;2022-08-19T05:23:47;11.60;;;10.03;;
17818;SDS011;9034;50.284;19.310;2022-08-19T05:24:52;10.73;;;9.57;;
17818;SDS011;9034;50.284;19.310;2022-08-19T05:26:13;13.30;;;10.07;;
17818;SDS011;9034;50.284;19.310;2022-08-19T05:27:18;12.47;;;10.10;;
17818;SDS011;9034;50.284;19.310;2022-08-19T05:28:23;13.70;;;10.03;;
17818;SDS011;9034;50.284;19.310;2022-08-19T05:29:26;13.40;;;9.37;;
17818;SDS011;9034;50.284;19.310;2022-08-19T05:30:39;11.57;;;9.57;;
17818;SDS011;9034;50.284;19.310;2022-08-19T05:31:49;13.37;;;9.07;;
17818;SDS011;9034;50.284;19.310;2022-08-19T05:32:54;15.20;;;9.70;;
17818;SDS011;9034;50.284;19.310;2022-08-19T05:33:58;11.93;;;8.83;;
17818;SDS011;9034;50.284;19.310;2022-08-19T05:35:02;10.27;;;8.50;;
17818;SDS011;9034;50.284;19.310;2022-08-19T05:36:07;9.80;;;8.77;;
17818;SDS011;9034;50.284;19.310;2022-08-19T05:37:11;10.47;;;8.53;;
17818;SDS011;9034;50.284;19.310;2022-08-19T05:38:15;9.70;;;8.70;;
17818;SDS011;9034;50.284;19.310;2022-08-19T05:39:19;14.03;;;9.33;;
17818;SDS011;9034;50.284;19.310;2022-08-19T05:40:23;10.40;;;8.40;;
17818;SDS011;9034;50.284;19.310;2022-08-19T05:41:27;14.07;;;9.27;;
17818;SDS011;9034;50.284;19.310;2022-08-19T05:42:32;9.27;;;7.87;;
17818;SDS011;9034;50.284;19.310;2022-08-19T05:43:37;9.83;;;8.03;;
17818;SDS011;9034;50.284;19.310;2022-08-19T05:44:42;10.30;;;8.00;;
17818;SDS011;9034;50.284;19.310;2022-08-19T05:45:48;13.03;;;8.60;;
17818;SDS011;9034;50.284;19.310;2022-08-19T05:46:53;8.10;;;7.37;;
17818;SDS011;9034;50.284;19.310;2022-08-19T05:47:58;8.93;;;7.07;;
17818;SDS011;9034;50.284;19.310;2022-08-19T05:49:04;10.53;;;7.83;;
17818;SDS011;9034;50.284;19.310;2022-08-19T05:50:10;8.43;;;7.53;;
17818;SDS011;9034;50.284;19.310;2022-08-19T05:51:14;9.77;;;8.03;;
17818;SDS011;9034;50.284;19.310;2022-08-19T05:52:19;10.63;;;7.37;;
17818;SDS011;9034;50.284;19.310;2022-08-19T05:53:27;8.70;;;7.80;;
17818;SDS011;9034;50.284;19.310;2022-08-19T05:54:31;14.17;;;7.97;;
17818;SDS011;9034;50.284;19.310;2022-08-19T05:55:36;10.17;;;8.23;;
17818;SDS011;9034;50.284;19.310;2022-08-19T05:56:41;8.80;;;7.87;;
17818;SDS011;9034;50.284;19.310;2022-08-19T05:57:46;11.87;;;7.30;;
17818;SDS011;9034;50.284;19.310;2022-08-19T05:58:49;10.00;;;7.50;;
17818;SDS011;9034;50.284;19.310;2022-08-19T05:59:59;11.73;;;8.03;;
17818;SDS011;9034;50.284;19.310;2022-08-19T06:01:14;9.27;;;8.17;;
17818;SDS011;9034;50.284;19.310;2022-08-19T06:02:21;9.03;;;7.73;;
17818;SDS011;9034;50.284;19.310;2022-08-19T06:03:24;9.93;;;7.90;;
17818;SDS011;9034;50.284;19.310;2022-08-19T06:04:29;9.27;;;7.33;;
17818;SDS011;9034;50.284;19.310;2022-08-19T06:05:32;9.33;;;7.37;;
17818;SDS011;9034;50.284;19.310;2022-08-19T06:06:51;9.53;;;8.07;;
17818;SDS011;9034;50.284;19.310;2022-08-19T06:07:57;8.13;;;7.33;;
17818;SDS011;9034;50.284;19.310;2022-08-19T06:09:01;9.33;;;7.50;;
17818;SDS011;9034;50.284;19.310;2022-08-19T06:10:07;10.73;;;7.73;;
17818;SDS011;9034;50.284;19.310;2022-08-19T06:11:12;9.20;;;7.33;;
17818;SDS011;9034;50.284;19.310;2022-08-19T06:12:18;10.30;;;7.40;;
17818;SDS011;9034;50.284;19.310;2022-08-19T06:13:29;7.93;;;7.13;;
17818;SDS011;9034;50.284;19.310;2022-08-19T06:14:39;8.47;;;7.67;;
17818;SDS011;9034;50.284;19.310;2022-08-19T06:15:47;8.20;;;7.23;;
17818;SDS011;9034;50.284;19.310;2022-08-19T06:16:52;11.10;;;7.10;;
17818;SDS011;9034;50.284;19.310;2022-08-19T06:17:57;15.70;;;8.83;;
17818;SDS011;9034;50.284;19.310;2022-08-19T06:19:02;14.37;;;8.20;;
17818;SDS011;9034;50.284;19.310;2022-08-19T06:20:09;13.57;;;8.00;;
17818;SDS011;9034;50.284;19.310;2022-08-19T06:21:17;14.70;;;7.83;;
17818;SDS011;9034;50.284;19.310;2022-08-19T06:22:21;10.00;;;7.77;;
17818;SDS011;9034;50.284;19.310;2022-08-19T06:23:26;10.23;;;7.80;;
17818;SDS011;9034;50.284;19.310;2022-08-19T06:24:29;8.23;;;7.43;;
17818;SDS011;9034;50.284;19.310;2022-08-19T06:25:34;10.10;;;7.40;;
17818;SDS011;9034;50.284;19.310;2022-08-19T06:26:38;8.30;;;7.37;;
17818;SDS011;9034;50.284;19.310;2022-08-19T06:27:44;12.10;;;7.40;;
17818;SDS011;9034;50.284;19.310;2022-08-19T06:29:08;8.30;;;7.43;;
17818;SDS011;9034;50.284;19.310;2022-08-19T06:30:25;8.20;;;7.47;;